sensor_id;sensor_type;location;lat;lon;timestamp;P1;durP1;ratioP1;P2;durP2;ratioP2
71955;SDS011;59829;50.562;6.258;2024-03-08T00:07:11;7.45;;;3.42;;
71955;SDS011;59829;50.562;6.258;2024-03-08T00:17:13;7.90;;;3.60;;
71955;SDS011;59829;50.562;6.258;2024-03-08T00:27:13;9.07;;;3.78;;
71955;SDS011;59829;50.562;6.258;2024-03-08T00:37:15;8.63;;;3.70;;
71955;SDS011;59829;50.562;6.258;2024-03-08T00:47:16;7.97;;;3.50;;
71955;SDS011;59829;50.562;6.258;2024-03-08T00:57:16;7.32;;;3.42;;
71955;SDS011;59829;50.562;6.258;2024-03-08T01:07:16;9.77;;;4.13;;
71955;SDS011;59829;50.562;6.258;2024-03-08T01:17:17;8.93;;;3.80;;
71955;SDS011;59829;50.562;6.258;2024-03-08T01:27:17;7.63;;;3.85;;
71955;SDS011;59829;50.562;6.258;2024-03-08T01:37:17;7.78;;;3.88;;
71955;SDS011;59829;50.562;6.258;2024-03-08T01:47:18;7.88;;;3.85;;
71955;SDS011;59829;50.562;6.258;2024-03-08T01:57:18;10.35;;;4.00;;
71955;SDS011;59829;50.562;6.258;2024-03-08T02:07:19;8.35;;;4.00;;
71955;SDS011;59829;50.562;6.258;2024-03-08T02:17:19;8.18;;;3.85;;
71955;SDS011;59829;50.562;6.258;2024-03-08T02:27:23;8.63;;;3.90;;
71955;SDS011;59829;50.562;6.258;2024-03-08T02:37:25;8.73;;;4.18;;
71955;SDS011;59829;50.562;6.258;2024-03-08T02:47:26;9.15;;;4.00;;
71955;SDS011;59829;50.562;6.258;2024-03-08T02:57:26;8.15;;;3.95;;
71955;SDS011;59829;50.562;6.258;2024-03-08T03:07:27;9.25;;;4.00;;
71955;SDS011;59829;50.562;6.258;2024-03-08T03:17:27;8.77;;;3.63;;
71955;SDS011;59829;50.562;6.258;2024-03-08T03:27:28;9.55;;;4.20;;
71955;SDS011;59829;50.562;6.258;2024-03-08T03:37:30;10.50;;;4.37;;
71955;SDS011;59829;50.562;6.258;2024-03-08T03:47:30;8.27;;;3.75;;
71955;SDS011;59829;50.562;6.258;2024-03-08T03:57:31;8.57;;;3.90;;
71955;SDS011;59829;50.562;6.258;2024-03-08T04:07:31;9.25;;;4.30;;
71955;SDS011;59829;50.562;6.258;2024-03-08T04:17:32;10.00;;;4.40;;
71955;SDS011;59829;50.562;6.258;2024-03-08T04:27:37;8.75;;;3.97;;
71955;SDS011;59829;50.562;6.258;2024-03-08T04:37:37;9.23;;;4.10;;
71955;SDS011;59829;50.562;6.258;2024-03-08T04:47:37;8.32;;;4.13;;
71955;SDS011;59829;50.562;6.258;2024-03-08T04:57:39;9.25;;;4.13;;
71955;SDS011;59829;50.562;6.258;2024-03-08T05:07:39;8.45;;;3.92;;
71955;SDS011;59829;50.562;6.258;2024-03-08T05:17:40;11.73;;;4.28;;
71955;SDS011;59829;50.562;6.258;2024-03-08T05:27:43;10.88;;;4.13;;
71955;SDS011;59829;50.562;6.258;2024-03-08T05:37:43;8.45;;;3.90;;
71955;SDS011;59829;50.562;6.258;2024-03-08T05:47:43;8.82;;;4.20;;
71955;SDS011;59829;50.562;6.258;2024-03-08T05:57:44;9.95;;;4.03;;
71955;SDS011;59829;50.562;6.258;2024-03-08T06:07:44;9.60;;;4.10;;
71955;SDS011;59829;50.562;6.258;2024-03-08T06:17:45;8.68;;;4.10;;
71955;SDS011;59829;50.562;6.258;2024-03-08T06:27:45;10.90;;;4.23;;
71955;SDS011;59829;50.562;6.258;2024-03-08T06:37:46;11.02;;;4.50;;
71955;SDS011;59829;50.562;6.258;2024-03-08T06:47:47;10.38;;;5.25;;
71955;SDS011;59829;50.562;6.258;2024-03-08T06:57:48;10.82;;;4.95;;
71955;SDS011;59829;50.562;6.258;2024-03-08T07:07:48;12.70;;;4.90;;
71955;SDS011;59829;50.562;6.258;2024-03-08T07:17:49;15.05;;;5.35;;
71955;SDS011;59829;50.562;6.258;2024-03-08T07:27:53;10.05;;;4.75;;
71955;SDS011;59829;50.562;6.258;2024-03-08T07:37:55;10.97;;;5.07;;
71955;SDS011;59829;50.562;6.258;2024-03-08T07:47:55;10.25;;;4.60;;
71955;SDS011;59829;50.562;6.258;2024-03-08T07:57:56;9.25;;;4.30;;
71955;SDS011;59829;50.562;6.258;2024-03-08T08:07:56;9.43;;;4.43;;
71955;SDS011;59829;50.562;6.258;2024-03-08T08:17:56;8.40;;;3.97;;
71955;SDS011;59829;50.562;6.258;2024-03-08T08:27:57;9.10;;;4.10;;
71955;SDS011;59829;50.562;6.258;2024-03-08T08:37:57;8.60;;;4.10;;
71955;SDS011;59829;50.562;6.258;2024-03-08T08:47:59;8.20;;;4.18;;
71955;SDS011;59829;50.562;6.258;2024-03-08T08:57:59;8.38;;;3.63;;
71955;SDS011;59829;50.562;6.258;2024-03-08T09:08:00;11.38;;;3.80;;
71955;SDS011;59829;50.562;6.258;2024-03-08T09:18:00;6.72;;;3.20;;
71955;SDS011;59829;50.562;6.258;2024-03-08T09:28:01;9.73;;;3.88;;
71955;SDS011;59829;50.562;6.258;2024-03-08T09:38:01;11.50;;;3.80;;
71955;SDS011;59829;50.562;6.258;2024-03-08T09:48:01;7.43;;;3.20;;
71955;SDS011;59829;50.562;6.258;2024-03-08T09:58:02;6.93;;;3.05;;
71955;SDS011;59829;50.562;6.258;2024-03-08T10:08:24;8.10;;;3.13;;
71955;SDS011;59829;50.562;6.258;2024-03-08T10:18:24;7.38;;;3.40;;
71955;SDS011;59829;50.562;6.258;2024-03-08T10:28:27;7.80;;;3.00;;
71955;SDS011;59829;50.562;6.258;2024-03-08T10:38:28;6.63;;;2.95;;
71955;SDS011;59829;50.562;6.258;2024-03-08T10:48:36;7.13;;;3.05;;
71955;SDS011;59829;50.562;6.258;2024-03-08T10:58:49;6.40;;;3.00;;
71955;SDS011;59829;50.562;6.258;2024-03-08T11:08:50;7.03;;;3.00;;
71955;SDS011;59829;50.562;6.258;2024-03-08T11:18:54;6.70;;;2.70;;
71955;SDS011;59829;50.562;6.258;2024-03-08T11:39:36;6.15;;;2.75;;
71955;SDS011;59829;50.562;6.258;2024-03-08T11:49:37;6.18;;;2.72;;
71955;SDS011;59829;50.562;6.258;2024-03-08T11:59:39;7.10;;;3.10;;
71955;SDS011;59829;50.562;6.258;2024-03-08T12:09:40;6.05;;;2.78;;
71955;SDS011;59829;50.562;6.258;2024-03-08T12:19:46;5.78;;;2.70;;
71955;SDS011;59829;50.562;6.258;2024-03-08T12:29:47;5.93;;;2.78;;
71955;SDS011;59829;50.562;6.258;2024-03-08T12:39:47;7.32;;;3.03;;
71955;SDS011;59829;50.562;6.258;2024-03-08T12:49:48;6.63;;;2.87;;
71955;SDS011;59829;50.562;6.258;2024-03-08T12:59:48;6.85;;;2.70;;
71955;SDS011;59829;50.562;6.258;2024-03-08T13:09:54;6.23;;;2.80;;
71955;SDS011;59829;50.562;6.258;2024-03-08T13:19:55;7.18;;;2.97;;
71955;SDS011;59829;50.562;6.258;2024-03-08T13:29:57;7.97;;;3.10;;
71955;SDS011;59829;50.562;6.258;2024-03-08T13:39:58;7.15;;;2.92;;
71955;SDS011;59829;50.562;6.258;2024-03-08T13:49:58;6.20;;;2.67;;
71955;SDS011;59829;50.562;6.258;2024-03-08T13:59:58;7.95;;;2.80;;
71955;SDS011;59829;50.562;6.258;2024-03-08T14:09:59;6.25;;;2.53;;
71955;SDS011;59829;50.562;6.258;2024-03-08T14:20:00;14.88;;;2.80;;
71955;SDS011;59829;50.562;6.258;2024-03-08T14:30:00;8.77;;;2.38;;
71955;SDS011;59829;50.562;6.258;2024-03-08T14:40:01;7.97;;;2.40;;
71955;SDS011;59829;50.562;6.258;2024-03-08T14:50:01;9.18;;;2.83;;
71955;SDS011;59829;50.562;6.258;2024-03-08T15:00:02;6.30;;;2.70;;
71955;SDS011;59829;50.562;6.258;2024-03-08T15:10:06;6.13;;;2.63;;
71955;SDS011;59829;50.562;6.258;2024-03-08T15:20:10;5.78;;;2.30;;
71955;SDS011;59829;50.562;6.258;2024-03-08T15:30:16;5.30;;;2.25;;
71955;SDS011;59829;50.562;6.258;2024-03-08T15:40:16;13.68;;;2.78;;
71955;SDS011;59829;50.562;6.258;2024-03-08T15:50:20;14.55;;;3.03;;
71955;SDS011;59829;50.562;6.258;2024-03-08T16:00:23;9.70;;;2.40;;
71955;SDS011;59829;50.562;6.258;2024-03-08T16:20:54;12.95;;;2.90;;
71955;SDS011;59829;50.562;6.258;2024-03-08T16:30:55;10.85;;;2.63;;
71955;SDS011;59829;50.562;6.258;2024-03-08T16:40:56;15.80;;;3.63;;
71955;SDS011;59829;50.562;6.258;2024-03-08T16:50:59;21.50;;;3.83;;
71955;SDS011;59829;50.562;6.258;2024-03-08T17:00:59;14.68;;;3.55;;
71955;SDS011;59829;50.562;6.258;2024-03-08T17:11:00;16.13;;;3.65;;
71955;SDS011;59829;50.562;6.258;2024-03-08T17:21:00;15.13;;;3.30;;
71955;SDS011;59829;50.562;6.258;2024-03-08T17:31:00;10.82;;;3.05;;
71955;SDS011;59829;50.562;6.258;2024-03-08T17:41:01;17.65;;;3.80;;
71955;SDS011;59829;50.562;6.258;2024-03-08T17:51:01;17.35;;;3.40;;
71955;SDS011;59829;50.562;6.258;2024-03-08T18:01:02;23.80;;;4.47;;
71955;SDS011;59829;50.562;6.258;2024-03-08T18:11:03;15.82;;;3.50;;
71955;SDS011;59829;50.562;6.258;2024-03-08T18:21:03;20.80;;;4.05;;
71955;SDS011;59829;50.562;6.258;2024-03-08T18:31:05;14.57;;;3.30;;
71955;SDS011;59829;50.562;6.258;2024-03-08T18:41:05;15.02;;;3.60;;
71955;SDS011;59829;50.562;6.258;2024-03-08T18:51:07;16.73;;;3.43;;
71955;SDS011;59829;50.562;6.258;2024-03-08T19:01:08;12.32;;;3.22;;
71955;SDS011;59829;50.562;6.258;2024-03-08T19:11:08;13.73;;;3.30;;
71955;SDS011;59829;50.562;6.258;2024-03-08T19:21:09;10.02;;;3.17;;
71955;SDS011;59829;50.562;6.258;2024-03-08T19:31:09;14.55;;;3.35;;
71955;SDS011;59829;50.562;6.258;2024-03-08T19:41:09;7.32;;;2.92;;
71955;SDS011;59829;50.562;6.258;2024-03-08T19:51:11;10.17;;;2.97;;
71955;SDS011;59829;50.562;6.258;2024-03-08T20:01:13;8.05;;;2.95;;
71955;SDS011;59829;50.562;6.258;2024-03-08T20:11:15;7.45;;;3.00;;
71955;SDS011;59829;50.562;6.258;2024-03-08T20:21:15;7.63;;;2.73;;
71955;SDS011;59829;50.562;6.258;2024-03-08T20:31:16;7.45;;;2.60;;
71955;SDS011;59829;50.562;6.258;2024-03-08T20:41:16;7.00;;;2.90;;
71955;SDS011;59829;50.562;6.258;2024-03-08T20:51:16;6.25;;;2.50;;
71955;SDS011;59829;50.562;6.258;2024-03-08T21:01:17;7.05;;;2.88;;
71955;SDS011;59829;50.562;6.258;2024-03-08T21:11:18;7.65;;;2.70;;
71955;SDS011;59829;50.562;6.258;2024-03-08T21:21:18;6.45;;;2.60;;
71955;SDS011;59829;50.562;6.258;2024-03-08T21:31:18;6.25;;;2.70;;
71955;SDS011;59829;50.562;6.258;2024-03-08T21:41:23;5.72;;;2.65;;
71955;SDS011;59829;50.562;6.258;2024-03-08T21:51:23;6.20;;;2.58;;
71955;SDS011;59829;50.562;6.258;2024-03-08T22:01:23;8.43;;;3.00;;
71955;SDS011;59829;50.562;6.258;2024-03-08T22:11:24;9.48;;;2.88;;
71955;SDS011;59829;50.562;6.258;2024-03-08T22:21:24;7.80;;;2.70;;
71955;SDS011;59829;50.562;6.258;2024-03-08T22:31:26;8.05;;;2.80;;
71955;SDS011;59829;50.562;6.258;2024-03-08T22:41:28;8.45;;;2.63;;
71955;SDS011;59829;50.562;6.258;2024-03-08T22:51:30;6.77;;;2.90;;
71955;SDS011;59829;50.562;6.258;2024-03-08T23:01:30;5.82;;;2.25;;
71955;SDS011;59829;50.562;6.258;2024-03-08T23:11:33;6.57;;;2.33;;
71955;SDS011;59829;50.562;6.258;2024-03-08T23:21:34;6.28;;;2.78;;
71955;SDS011;59829;50.562;6.258;2024-03-08T23:31:34;6.38;;;2.40;;
71955;SDS011;59829;50.562;6.258;2024-03-08T23:41:35;5.85;;;2.50;;
